sensor_id;sensor_type;location;lat;lon;timestamp;P1;durP1;ratioP1;P2;durP2;ratioP2
13797;SDS011;6970;51.340;3.240;2022-11-20T00:01:07;45.37;;;23.60;;
13797;SDS011;6970;51.340;3.240;2022-11-20T00:03:40;45.97;;;24.87;;
13797;SDS011;6970;51.340;3.240;2022-11-20T00:06:09;47.87;;;26.10;;
13797;SDS011;6970;51.340;3.240;2022-11-20T00:08:37;56.83;;;25.33;;
13797;SDS011;6970;51.340;3.240;2022-11-20T00:11:06;50.10;;;25.97;;
13797;SDS011;6970;51.340;3.240;2022-11-20T00:13:40;49.50;;;26.33;;
13797;SDS011;6970;51.340;3.240;2022-11-20T00:16:09;51.13;;;26.53;;
13797;SDS011;6970;51.340;3.240;2022-11-20T00:18:37;55.30;;;27.00;;
13797;SDS011;6970;51.340;3.240;2022-11-20T00:21:05;57.20;;;29.30;;
13797;SDS011;6970;51.340;3.240;2022-11-20T00:23:36;51.40;;;28.77;;
13797;SDS011;6970;51.340;3.240;2022-11-20T00:26:03;55.20;;;27.83;;
13797;SDS011;6970;51.340;3.240;2022-11-20T00:28:34;49.60;;;26.80;;
13797;SDS011;6970;51.340;3.240;2022-11-20T00:31:08;55.87;;;29.80;;
13797;SDS011;6970;51.340;3.240;2022-11-20T00:33:40;55.10;;;28.57;;
13797;SDS011;6970;51.340;3.240;2022-11-20T00:36:18;56.57;;;27.33;;
13797;SDS011;6970;51.340;3.240;2022-11-20T00:38:46;54.30;;;28.47;;
13797;SDS011;6970;51.340;3.240;2022-11-20T00:41:14;51.23;;;27.90;;
13797;SDS011;6970;51.340;3.240;2022-11-20T00:43:42;48.63;;;27.27;;
13797;SDS011;6970;51.340;3.240;2022-11-20T00:46:10;49.67;;;26.63;;
13797;SDS011;6970;51.340;3.240;2022-11-20T00:48:40;54.60;;;29.07;;
13797;SDS011;6970;51.340;3.240;2022-11-20T00:51:07;47.77;;;27.10;;
13797;SDS011;6970;51.340;3.240;2022-11-20T00:53:34;49.47;;;26.53;;
13797;SDS011;6970;51.340;3.240;2022-11-20T00:56:02;53.80;;;27.03;;
13797;SDS011;6970;51.340;3.240;2022-11-20T00:58:34;47.33;;;25.70;;
13797;SDS011;6970;51.340;3.240;2022-11-20T01:01:12;49.63;;;26.73;;
13797;SDS011;6970;51.340;3.240;2022-11-20T01:03:59;50.73;;;26.73;;
13797;SDS011;6970;51.340;3.240;2022-11-20T01:06:31;46.07;;;26.10;;
13797;SDS011;6970;51.340;3.240;2022-11-20T01:09:01;48.47;;;25.53;;
13797;SDS011;6970;51.340;3.240;2022-11-20T01:11:32;48.37;;;26.33;;
13797;SDS011;6970;51.340;3.240;2022-11-20T01:14:02;45.27;;;24.47;;
13797;SDS011;6970;51.340;3.240;2022-11-20T01:16:31;44.70;;;24.50;;
13797;SDS011;6970;51.340;3.240;2022-11-20T01:19:04;43.03;;;24.87;;
13797;SDS011;6970;51.340;3.240;2022-11-20T01:21:34;50.13;;;25.57;;
13797;SDS011;6970;51.340;3.240;2022-11-20T01:24:03;45.53;;;25.40;;
13797;SDS011;6970;51.340;3.240;2022-11-20T01:26:32;51.47;;;26.63;;
13797;SDS011;6970;51.340;3.240;2022-11-20T01:29:00;43.73;;;24.87;;
13797;SDS011;6970;51.340;3.240;2022-11-20T01:31:29;42.70;;;24.33;;
13797;SDS011;6970;51.340;3.240;2022-11-20T01:33:59;48.40;;;25.70;;
13797;SDS011;6970;51.340;3.240;2022-11-20T01:36:31;43.43;;;25.07;;
13797;SDS011;6970;51.340;3.240;2022-11-20T01:39:00;50.57;;;26.50;;
13797;SDS011;6970;51.340;3.240;2022-11-20T01:41:29;44.97;;;26.07;;
13797;SDS011;6970;51.340;3.240;2022-11-20T01:44:17;46.50;;;24.87;;
13797;SDS011;6970;51.340;3.240;2022-11-20T01:46:57;46.83;;;25.93;;
13797;SDS011;6970;51.340;3.240;2022-11-20T01:49:33;42.40;;;25.73;;
13797;SDS011;6970;51.340;3.240;2022-11-20T01:52:07;47.97;;;25.63;;
13797;SDS011;6970;51.340;3.240;2022-11-20T01:55:00;50.37;;;26.87;;
13797;SDS011;6970;51.340;3.240;2022-11-20T01:57:33;56.17;;;26.30;;
13797;SDS011;6970;51.340;3.240;2022-11-20T02:00:09;52.03;;;26.77;;
13797;SDS011;6970;51.340;3.240;2022-11-20T02:02:39;52.37;;;27.07;;
13797;SDS011;6970;51.340;3.240;2022-11-20T02:05:12;53.17;;;28.27;;
13797;SDS011;6970;51.340;3.240;2022-11-20T02:07:46;54.10;;;27.60;;
13797;SDS011;6970;51.340;3.240;2022-11-20T02:10:14;53.97;;;27.77;;
13797;SDS011;6970;51.340;3.240;2022-11-20T02:12:41;58.13;;;28.80;;
13797;SDS011;6970;51.340;3.240;2022-11-20T02:15:27;57.07;;;27.40;;
13797;SDS011;6970;51.340;3.240;2022-11-20T02:17:55;53.97;;;27.70;;
13797;SDS011;6970;51.340;3.240;2022-11-20T02:20:22;53.90;;;26.70;;
13797;SDS011;6970;51.340;3.240;2022-11-20T02:22:51;57.00;;;28.23;;
13797;SDS011;6970;51.340;3.240;2022-11-20T02:25:21;55.70;;;28.10;;
13797;SDS011;6970;51.340;3.240;2022-11-20T02:27:51;56.30;;;28.20;;
13797;SDS011;6970;51.340;3.240;2022-11-20T02:30:21;58.47;;;26.63;;
13797;SDS011;6970;51.340;3.240;2022-11-20T02:32:48;56.17;;;27.67;;
13797;SDS011;6970;51.340;3.240;2022-11-20T02:37:46;55.10;;;27.50;;
13797;SDS011;6970;51.340;3.240;2022-11-20T02:40:14;54.77;;;26.37;;
13797;SDS011;6970;51.340;3.240;2022-11-20T02:42:42;58.33;;;28.23;;
13797;SDS011;6970;51.340;3.240;2022-11-20T02:45:09;55.10;;;27.07;;
13797;SDS011;6970;51.340;3.240;2022-11-20T02:47:36;57.30;;;28.13;;
13797;SDS011;6970;51.340;3.240;2022-11-20T02:50:03;59.67;;;27.07;;
13797;SDS011;6970;51.340;3.240;2022-11-20T02:52:31;60.10;;;28.50;;
13797;SDS011;6970;51.340;3.240;2022-11-20T02:55:00;59.10;;;28.47;;
13797;SDS011;6970;51.340;3.240;2022-11-20T02:57:27;58.70;;;28.30;;
13797;SDS011;6970;51.340;3.240;2022-11-20T02:59:54;54.83;;;26.03;;
13797;SDS011;6970;51.340;3.240;2022-11-20T03:02:21;52.77;;;26.70;;
13797;SDS011;6970;51.340;3.240;2022-11-20T03:04:47;52.80;;;26.77;;
13797;SDS011;6970;51.340;3.240;2022-11-20T03:07:14;56.40;;;27.53;;
13797;SDS011;6970;51.340;3.240;2022-11-20T03:09:42;54.20;;;27.03;;
13797;SDS011;6970;51.340;3.240;2022-11-20T03:12:08;56.00;;;26.47;;
13797;SDS011;6970;51.340;3.240;2022-11-20T03:14:35;52.90;;;27.17;;
13797;SDS011;6970;51.340;3.240;2022-11-20T03:17:02;49.37;;;24.77;;
13797;SDS011;6970;51.340;3.240;2022-11-20T03:19:29;52.67;;;26.23;;
13797;SDS011;6970;51.340;3.240;2022-11-20T03:21:57;60.37;;;27.17;;
13797;SDS011;6970;51.340;3.240;2022-11-20T03:24:24;55.77;;;27.77;;
13797;SDS011;6970;51.340;3.240;2022-11-20T03:29:21;55.03;;;27.30;;
13797;SDS011;6970;51.340;3.240;2022-11-20T03:31:48;56.40;;;26.97;;
13797;SDS011;6970;51.340;3.240;2022-11-20T03:34:15;50.53;;;27.33;;
13797;SDS011;6970;51.340;3.240;2022-11-20T03:36:42;52.87;;;26.53;;
13797;SDS011;6970;51.340;3.240;2022-11-20T03:39:10;51.70;;;26.43;;
13797;SDS011;6970;51.340;3.240;2022-11-20T03:41:37;53.83;;;26.60;;
13797;SDS011;6970;51.340;3.240;2022-11-20T03:44:06;52.33;;;26.63;;
13797;SDS011;6970;51.340;3.240;2022-11-20T03:46:35;55.03;;;26.33;;
13797;SDS011;6970;51.340;3.240;2022-11-20T03:49:02;50.73;;;24.40;;
13797;SDS011;6970;51.340;3.240;2022-11-20T03:51:30;47.80;;;25.20;;
13797;SDS011;6970;51.340;3.240;2022-11-20T03:54:00;58.40;;;28.20;;
13797;SDS011;6970;51.340;3.240;2022-11-20T03:56:29;52.40;;;27.13;;
13797;SDS011;6970;51.340;3.240;2022-11-20T03:58:58;58.73;;;28.20;;
13797;SDS011;6970;51.340;3.240;2022-11-20T04:01:26;51.40;;;26.63;;
13797;SDS011;6970;51.340;3.240;2022-11-20T04:03:56;52.20;;;26.97;;
13797;SDS011;6970;51.340;3.240;2022-11-20T04:08:53;54.13;;;26.57;;
13797;SDS011;6970;51.340;3.240;2022-11-20T04:11:22;64.27;;;27.80;;
13797;SDS011;6970;51.340;3.240;2022-11-20T04:13:52;57.50;;;27.80;;
13797;SDS011;6970;51.340;3.240;2022-11-20T04:16:20;61.10;;;26.77;;
13797;SDS011;6970;51.340;3.240;2022-11-20T04:18:51;54.07;;;26.03;;
13797;SDS011;6970;51.340;3.240;2022-11-20T04:21:22;57.70;;;27.40;;
13797;SDS011;6970;51.340;3.240;2022-11-20T04:23:50;58.13;;;27.73;;
13797;SDS011;6970;51.340;3.240;2022-11-20T04:26:25;59.73;;;28.87;;
13797;SDS011;6970;51.340;3.240;2022-11-20T04:28:53;56.63;;;27.47;;
13797;SDS011;6970;51.340;3.240;2022-11-20T04:31:21;61.60;;;28.80;;
13797;SDS011;6970;51.340;3.240;2022-11-20T04:33:53;54.27;;;27.73;;
13797;SDS011;6970;51.340;3.240;2022-11-20T04:36:22;58.93;;;28.23;;
13797;SDS011;6970;51.340;3.240;2022-11-20T04:38:51;60.87;;;28.60;;
13797;SDS011;6970;51.340;3.240;2022-11-20T04:41:22;64.80;;;28.57;;
13797;SDS011;6970;51.340;3.240;2022-11-20T04:43:55;61.37;;;29.20;;
13797;SDS011;6970;51.340;3.240;2022-11-20T04:46:26;63.43;;;29.27;;
13797;SDS011;6970;51.340;3.240;2022-11-20T04:48:54;60.70;;;27.80;;
13797;SDS011;6970;51.340;3.240;2022-11-20T04:51:21;64.17;;;28.50;;
13797;SDS011;6970;51.340;3.240;2022-11-20T04:53:48;63.10;;;30.00;;
13797;SDS011;6970;51.340;3.240;2022-11-20T04:56:15;62.13;;;29.13;;
13797;SDS011;6970;51.340;3.240;2022-11-20T04:58:42;63.63;;;30.43;;
13797;SDS011;6970;51.340;3.240;2022-11-20T05:01:11;66.97;;;29.20;;
13797;SDS011;6970;51.340;3.240;2022-11-20T05:03:40;59.70;;;29.30;;
13797;SDS011;6970;51.340;3.240;2022-11-20T05:06:08;63.37;;;28.23;;
13797;SDS011;6970;51.340;3.240;2022-11-20T05:08:39;61.20;;;29.00;;
13797;SDS011;6970;51.340;3.240;2022-11-20T05:11:11;62.57;;;30.00;;
13797;SDS011;6970;51.340;3.240;2022-11-20T05:13:40;62.17;;;28.00;;
13797;SDS011;6970;51.340;3.240;2022-11-20T05:16:08;65.73;;;29.33;;
13797;SDS011;6970;51.340;3.240;2022-11-20T05:18:37;64.97;;;29.83;;
13797;SDS011;6970;51.340;3.240;2022-11-20T05:21:05;69.93;;;30.40;;
13797;SDS011;6970;51.340;3.240;2022-11-20T05:23:33;69.97;;;32.07;;
13797;SDS011;6970;51.340;3.240;2022-11-20T05:26:01;61.37;;;28.10;;
13797;SDS011;6970;51.340;3.240;2022-11-20T05:28:30;59.37;;;29.17;;
13797;SDS011;6970;51.340;3.240;2022-11-20T05:31:11;71.97;;;30.03;;
13797;SDS011;6970;51.340;3.240;2022-11-20T05:33:51;64.90;;;29.77;;
13797;SDS011;6970;51.340;3.240;2022-11-20T05:36:18;68.97;;;29.53;;
13797;SDS011;6970;51.340;3.240;2022-11-20T05:38:45;70.30;;;31.07;;
13797;SDS011;6970;51.340;3.240;2022-11-20T05:41:16;69.83;;;29.20;;
13797;SDS011;6970;51.340;3.240;2022-11-20T05:43:46;68.97;;;31.70;;
13797;SDS011;6970;51.340;3.240;2022-11-20T05:46:15;77.47;;;34.20;;
13797;SDS011;6970;51.340;3.240;2022-11-20T05:48:50;74.17;;;30.73;;
13797;SDS011;6970;51.340;3.240;2022-11-20T05:51:17;71.67;;;32.03;;
13797;SDS011;6970;51.340;3.240;2022-11-20T05:53:45;82.47;;;33.00;;
13797;SDS011;6970;51.340;3.240;2022-11-20T05:56:15;74.23;;;32.07;;
13797;SDS011;6970;51.340;3.240;2022-11-20T05:58:44;78.57;;;31.60;;
13797;SDS011;6970;51.340;3.240;2022-11-20T06:01:16;71.00;;;30.70;;
13797;SDS011;6970;51.340;3.240;2022-11-20T06:03:45;78.07;;;30.73;;
13797;SDS011;6970;51.340;3.240;2022-11-20T06:06:14;79.33;;;31.37;;
13797;SDS011;6970;51.340;3.240;2022-11-20T06:08:42;75.73;;;31.33;;
13797;SDS011;6970;51.340;3.240;2022-11-20T06:11:10;78.90;;;33.07;;
13797;SDS011;6970;51.340;3.240;2022-11-20T06:13:39;85.20;;;32.00;;
13797;SDS011;6970;51.340;3.240;2022-11-20T06:16:08;84.30;;;33.47;;
13797;SDS011;6970;51.340;3.240;2022-11-20T06:18:36;92.30;;;33.13;;
13797;SDS011;6970;51.340;3.240;2022-11-20T06:21:04;86.20;;;34.93;;
13797;SDS011;6970;51.340;3.240;2022-11-20T06:23:36;85.33;;;33.37;;
13797;SDS011;6970;51.340;3.240;2022-11-20T06:26:08;90.47;;;33.00;;
13797;SDS011;6970;51.340;3.240;2022-11-20T06:28:41;96.57;;;34.70;;
13797;SDS011;6970;51.340;3.240;2022-11-20T06:31:10;90.20;;;34.77;;
13797;SDS011;6970;51.340;3.240;2022-11-20T06:33:40;88.90;;;33.33;;
13797;SDS011;6970;51.340;3.240;2022-11-20T06:36:07;99.17;;;35.20;;
13797;SDS011;6970;51.340;3.240;2022-11-20T06:38:36;99.67;;;35.60;;
13797;SDS011;6970;51.340;3.240;2022-11-20T06:41:10;97.70;;;36.33;;
13797;SDS011;6970;51.340;3.240;2022-11-20T06:43:42;100.00;;;36.97;;
13797;SDS011;6970;51.340;3.240;2022-11-20T06:46:12;102.87;;;37.00;;
13797;SDS011;6970;51.340;3.240;2022-11-20T06:48:42;106.50;;;37.30;;
13797;SDS011;6970;51.340;3.240;2022-11-20T06:51:09;110.10;;;37.03;;
13797;SDS011;6970;51.340;3.240;2022-11-20T06:53:36;106.90;;;39.00;;
13797;SDS011;6970;51.340;3.240;2022-11-20T06:56:10;99.97;;;35.33;;
13797;SDS011;6970;51.340;3.240;2022-11-20T06:58:37;106.13;;;35.57;;
13797;SDS011;6970;51.340;3.240;2022-11-20T07:01:06;99.83;;;34.60;;
13797;SDS011;6970;51.340;3.240;2022-11-20T07:03:39;95.37;;;34.70;;
13797;SDS011;6970;51.340;3.240;2022-11-20T07:06:10;104.47;;;34.53;;
13797;SDS011;6970;51.340;3.240;2022-11-20T07:08:38;92.90;;;33.90;;
13797;SDS011;6970;51.340;3.240;2022-11-20T07:11:06;100.50;;;35.30;;
13797;SDS011;6970;51.340;3.240;2022-11-20T07:13:33;100.37;;;34.53;;
13797;SDS011;6970;51.340;3.240;2022-11-20T07:16:04;91.83;;;32.67;;
13797;SDS011;6970;51.340;3.240;2022-11-20T07:18:36;95.10;;;32.70;;
13797;SDS011;6970;51.340;3.240;2022-11-20T07:21:09;90.73;;;33.10;;
13797;SDS011;6970;51.340;3.240;2022-11-20T07:23:37;92.70;;;31.17;;
13797;SDS011;6970;51.340;3.240;2022-11-20T07:26:06;96.57;;;32.27;;
13797;SDS011;6970;51.340;3.240;2022-11-20T07:28:38;98.17;;;33.30;;
13797;SDS011;6970;51.340;3.240;2022-11-20T07:31:06;95.87;;;32.67;;
13797;SDS011;6970;51.340;3.240;2022-11-20T07:33:34;91.00;;;31.17;;
13797;SDS011;6970;51.340;3.240;2022-11-20T07:36:01;93.60;;;33.13;;
13797;SDS011;6970;51.340;3.240;2022-11-20T07:41:02;113.50;;;33.77;;
13797;SDS011;6970;51.340;3.240;2022-11-20T07:43:29;97.93;;;33.97;;
13797;SDS011;6970;51.340;3.240;2022-11-20T07:45:57;98.30;;;32.03;;
13797;SDS011;6970;51.340;3.240;2022-11-20T07:48:25;100.97;;;31.77;;
13797;SDS011;6970;51.340;3.240;2022-11-20T07:50:58;115.57;;;32.70;;
13797;SDS011;6970;51.340;3.240;2022-11-20T07:55:59;122.63;;;33.07;;
13797;SDS011;6970;51.340;3.240;2022-11-20T07:58:29;152.93;;;33.63;;
13797;SDS011;6970;51.340;3.240;2022-11-20T08:01:06;118.40;;;32.47;;
13797;SDS011;6970;51.340;3.240;2022-11-20T08:03:36;113.20;;;31.23;;
13797;SDS011;6970;51.340;3.240;2022-11-20T08:06:12;85.37;;;29.20;;
13797;SDS011;6970;51.340;3.240;2022-11-20T08:08:39;112.10;;;30.03;;
13797;SDS011;6970;51.340;3.240;2022-11-20T08:13:57;101.27;;;27.50;;
13797;SDS011;6970;51.340;3.240;2022-11-20T08:16:43;81.87;;;28.20;;
13797;SDS011;6970;51.340;3.240;2022-11-20T08:19:16;121.67;;;29.77;;
13797;SDS011;6970;51.340;3.240;2022-11-20T08:24:14;111.63;;;29.87;;
13797;SDS011;6970;51.340;3.240;2022-11-20T08:29:13;114.80;;;29.83;;
13797;SDS011;6970;51.340;3.240;2022-11-20T08:31:42;107.87;;;28.53;;
13797;SDS011;6970;51.340;3.240;2022-11-20T08:34:12;94.47;;;29.43;;
13797;SDS011;6970;51.340;3.240;2022-11-20T08:39:14;103.93;;;28.33;;
13797;SDS011;6970;51.340;3.240;2022-11-20T08:41:41;88.83;;;29.10;;
13797;SDS011;6970;51.340;3.240;2022-11-20T08:44:08;88.77;;;28.73;;
13797;SDS011;6970;51.340;3.240;2022-11-20T08:46:40;86.00;;;29.17;;
13797;SDS011;6970;51.340;3.240;2022-11-20T08:49:08;89.93;;;28.83;;
13797;SDS011;6970;51.340;3.240;2022-11-20T08:51:40;83.67;;;28.30;;
13797;SDS011;6970;51.340;3.240;2022-11-20T08:59:11;87.50;;;29.70;;
13797;SDS011;6970;51.340;3.240;2022-11-20T09:02:00;77.43;;;27.67;;
13797;SDS011;6970;51.340;3.240;2022-11-20T09:04:27;87.03;;;28.60;;
13797;SDS011;6970;51.340;3.240;2022-11-20T09:06:54;80.10;;;30.00;;
13797;SDS011;6970;51.340;3.240;2022-11-20T09:09:24;95.90;;;29.03;;
13797;SDS011;6970;51.340;3.240;2022-11-20T09:11:51;78.77;;;28.90;;
13797;SDS011;6970;51.340;3.240;2022-11-20T09:16:53;81.93;;;29.73;;
13797;SDS011;6970;51.340;3.240;2022-11-20T09:22:07;84.63;;;29.37;;
13797;SDS011;6970;51.340;3.240;2022-11-20T09:24:34;73.60;;;27.97;;
13797;SDS011;6970;51.340;3.240;2022-11-20T09:27:03;75.43;;;28.37;;
13797;SDS011;6970;51.340;3.240;2022-11-20T09:29:43;81.57;;;28.77;;
13797;SDS011;6970;51.340;3.240;2022-11-20T09:32:10;86.00;;;29.87;;
13797;SDS011;6970;51.340;3.240;2022-11-20T09:34:38;83.67;;;29.33;;
13797;SDS011;6970;51.340;3.240;2022-11-20T09:37:07;87.03;;;30.90;;
13797;SDS011;6970;51.340;3.240;2022-11-20T09:39:35;85.23;;;30.80;;
13797;SDS011;6970;51.340;3.240;2022-11-20T09:53:52;73.10;;;27.60;;
13797;SDS011;6970;51.340;3.240;2022-11-20T09:56:42;69.67;;;26.23;;
13797;SDS011;6970;51.340;3.240;2022-11-20T10:01:48;67.87;;;25.67;;
13797;SDS011;6970;51.340;3.240;2022-11-20T10:04:19;68.27;;;28.70;;
13797;SDS011;6970;51.340;3.240;2022-11-20T10:06:52;65.93;;;25.77;;
13797;SDS011;6970;51.340;3.240;2022-11-20T10:09:58;57.23;;;23.17;;
13797;SDS011;6970;51.340;3.240;2022-11-20T10:12:30;51.10;;;23.30;;
13797;SDS011;6970;51.340;3.240;2022-11-20T10:29:36;37.77;;;18.27;;
13797;SDS011;6970;51.340;3.240;2022-11-20T10:32:16;32.23;;;18.13;;
13797;SDS011;6970;51.340;3.240;2022-11-20T10:34:50;34.97;;;18.33;;
13797;SDS011;6970;51.340;3.240;2022-11-20T10:42:49;28.07;;;15.70;;
13797;SDS011;6970;51.340;3.240;2022-11-20T10:45:36;26.30;;;14.57;;
13797;SDS011;6970;51.340;3.240;2022-11-20T10:50:51;21.43;;;13.60;;
13797;SDS011;6970;51.340;3.240;2022-11-20T10:53:38;19.83;;;12.90;;
13797;SDS011;6970;51.340;3.240;2022-11-20T11:01:41;16.20;;;10.73;;
13797;SDS011;6970;51.340;3.240;2022-11-20T11:06:51;15.43;;;9.27;;
13797;SDS011;6970;51.340;3.240;2022-11-20T11:09:24;12.63;;;9.13;;
13797;SDS011;6970;51.340;3.240;2022-11-20T11:11:59;10.63;;;8.27;;
13797;SDS011;6970;51.340;3.240;2022-11-20T11:14:43;15.07;;;8.30;;
13797;SDS011;6970;51.340;3.240;2022-11-20T11:17:22;9.33;;;7.90;;
13797;SDS011;6970;51.340;3.240;2022-11-20T11:28:19;11.27;;;6.63;;
13797;SDS011;6970;51.340;3.240;2022-11-20T11:30:47;7.93;;;5.40;;
13797;SDS011;6970;51.340;3.240;2022-11-20T11:33:32;8.43;;;5.63;;
13797;SDS011;6970;51.340;3.240;2022-11-20T11:36:00;9.43;;;4.40;;
13797;SDS011;6970;51.340;3.240;2022-11-20T11:38:39;7.10;;;5.07;;
13797;SDS011;6970;51.340;3.240;2022-11-20T11:41:11;5.30;;;4.43;;
13797;SDS011;6970;51.340;3.240;2022-11-20T11:43:50;7.70;;;4.50;;
13797;SDS011;6970;51.340;3.240;2022-11-20T11:46:53;7.00;;;4.07;;
13797;SDS011;6970;51.340;3.240;2022-11-20T11:55:02;4.27;;;3.73;;
13797;SDS011;6970;51.340;3.240;2022-11-20T11:57:42;3.70;;;2.53;;
13797;SDS011;6970;51.340;3.240;2022-11-20T12:00:14;4.27;;;3.47;;
13797;SDS011;6970;51.340;3.240;2022-11-20T12:10:48;5.63;;;3.00;;
13797;SDS011;6970;51.340;3.240;2022-11-20T12:16:08;6.57;;;3.17;;
13797;SDS011;6970;51.340;3.240;2022-11-20T12:18:43;5.37;;;3.53;;
13797;SDS011;6970;51.340;3.240;2022-11-20T12:21:28;3.30;;;2.90;;
13797;SDS011;6970;51.340;3.240;2022-11-20T12:41:47;3.57;;;3.27;;
13797;SDS011;6970;51.340;3.240;2022-11-20T12:45:02;3.97;;;3.37;;
13797;SDS011;6970;51.340;3.240;2022-11-20T12:47:56;5.90;;;3.73;;
13797;SDS011;6970;51.340;3.240;2022-11-20T12:53:34;4.30;;;3.10;;
13797;SDS011;6970;51.340;3.240;2022-11-20T13:01:52;3.60;;;3.30;;
13797;SDS011;6970;51.340;3.240;2022-11-20T13:07:05;3.70;;;3.40;;
13797;SDS011;6970;51.340;3.240;2022-11-20T13:09:45;3.83;;;3.23;;
13797;SDS011;6970;51.340;3.240;2022-11-20T13:17:40;4.43;;;3.80;;
13797;SDS011;6970;51.340;3.240;2022-11-20T13:20:15;3.30;;;3.10;;
13797;SDS011;6970;51.340;3.240;2022-11-20T13:22:48;5.33;;;3.90;;
13797;SDS011;6970;51.340;3.240;2022-11-20T13:30:36;3.87;;;3.40;;
13797;SDS011;6970;51.340;3.240;2022-11-20T13:33:35;4.50;;;4.10;;
13797;SDS011;6970;51.340;3.240;2022-11-20T13:36:24;4.90;;;4.40;;
13797;SDS011;6970;51.340;3.240;2022-11-20T13:38:55;4.33;;;4.03;;
13797;SDS011;6970;51.340;3.240;2022-11-20T13:41:40;4.20;;;3.70;;
13797;SDS011;6970;51.340;3.240;2022-11-20T13:46:45;4.10;;;3.83;;
13797;SDS011;6970;51.340;3.240;2022-11-20T13:49:17;4.60;;;4.20;;
13797;SDS011;6970;51.340;3.240;2022-11-20T14:01:15;4.50;;;4.10;;
13797;SDS011;6970;51.340;3.240;2022-11-20T14:03:48;5.57;;;4.13;;
13797;SDS011;6970;51.340;3.240;2022-11-20T14:09:24;8.20;;;3.20;;
13797;SDS011;6970;51.340;3.240;2022-11-20T14:11:52;4.80;;;1.70;;
13797;SDS011;6970;51.340;3.240;2022-11-20T14:14:20;10.97;;;1.80;;
13797;SDS011;6970;51.340;3.240;2022-11-20T14:16:51;7.60;;;1.73;;
13797;SDS011;6970;51.340;3.240;2022-11-20T14:21:52;7.83;;;1.90;;
13797;SDS011;6970;51.340;3.240;2022-11-20T14:24:23;7.23;;;1.97;;
13797;SDS011;6970;51.340;3.240;2022-11-20T14:26:52;7.53;;;2.00;;
13797;SDS011;6970;51.340;3.240;2022-11-20T14:29:23;9.10;;;2.53;;
13797;SDS011;6970;51.340;3.240;2022-11-20T14:31:58;10.50;;;2.40;;
13797;SDS011;6970;51.340;3.240;2022-11-20T14:34:28;15.13;;;2.50;;
13797;SDS011;6970;51.340;3.240;2022-11-20T14:39:36;11.47;;;2.10;;
13797;SDS011;6970;51.340;3.240;2022-11-20T14:42:38;12.07;;;2.57;;
13797;SDS011;6970;51.340;3.240;2022-11-20T14:45:01;10.33;;;2.73;;
13797;SDS011;6970;51.340;3.240;2022-11-20T14:47:30;11.13;;;2.77;;
13797;SDS011;6970;51.340;3.240;2022-11-20T14:50:01;12.73;;;2.77;;
13797;SDS011;6970;51.340;3.240;2022-11-20T14:52:35;9.60;;;3.27;;
13797;SDS011;6970;51.340;3.240;2022-11-20T14:55:02;10.13;;;2.53;;
13797;SDS011;6970;51.340;3.240;2022-11-20T14:57:35;11.13;;;2.40;;
13797;SDS011;6970;51.340;3.240;2022-11-20T15:00:18;10.93;;;2.10;;
13797;SDS011;6970;51.340;3.240;2022-11-20T15:02:48;8.77;;;2.43;;
13797;SDS011;6970;51.340;3.240;2022-11-20T15:05:18;10.47;;;2.47;;
13797;SDS011;6970;51.340;3.240;2022-11-20T15:07:48;13.60;;;2.73;;
13797;SDS011;6970;51.340;3.240;2022-11-20T15:10:33;7.87;;;2.43;;
13797;SDS011;6970;51.340;3.240;2022-11-20T15:16:03;9.57;;;2.17;;
13797;SDS011;6970;51.340;3.240;2022-11-20T15:18:46;12.37;;;3.00;;
13797;SDS011;6970;51.340;3.240;2022-11-20T15:21:20;13.03;;;2.17;;
13797;SDS011;6970;51.340;3.240;2022-11-20T15:23:47;16.17;;;2.83;;
13797;SDS011;6970;51.340;3.240;2022-11-20T15:26:26;9.40;;;2.53;;
13797;SDS011;6970;51.340;3.240;2022-11-20T15:28:57;7.33;;;2.23;;
13797;SDS011;6970;51.340;3.240;2022-11-20T15:31:27;12.50;;;2.63;;
13797;SDS011;6970;51.340;3.240;2022-11-20T15:33:54;10.13;;;2.43;;
13797;SDS011;6970;51.340;3.240;2022-11-20T15:36:23;17.20;;;3.40;;
13797;SDS011;6970;51.340;3.240;2022-11-20T15:38:50;19.23;;;2.87;;
13797;SDS011;6970;51.340;3.240;2022-11-20T15:41:19;5.90;;;2.40;;
13797;SDS011;6970;51.340;3.240;2022-11-20T15:43:47;8.20;;;2.37;;
13797;SDS011;6970;51.340;3.240;2022-11-20T15:46:19;12.53;;;3.07;;
13797;SDS011;6970;51.340;3.240;2022-11-20T15:49:02;13.60;;;3.07;;
13797;SDS011;6970;51.340;3.240;2022-11-20T15:51:30;9.40;;;2.10;;
13797;SDS011;6970;51.340;3.240;2022-11-20T15:54:02;13.50;;;2.57;;
13797;SDS011;6970;51.340;3.240;2022-11-20T15:56:37;10.83;;;2.27;;
13797;SDS011;6970;51.340;3.240;2022-11-20T15:59:05;12.03;;;2.80;;
13797;SDS011;6970;51.340;3.240;2022-11-20T16:01:35;6.90;;;2.03;;
13797;SDS011;6970;51.340;3.240;2022-11-20T16:04:04;7.13;;;2.53;;
13797;SDS011;6970;51.340;3.240;2022-11-20T16:06:35;12.97;;;2.27;;
13797;SDS011;6970;51.340;3.240;2022-11-20T16:09:05;12.90;;;2.57;;
13797;SDS011;6970;51.340;3.240;2022-11-20T16:11:34;12.90;;;3.20;;
13797;SDS011;6970;51.340;3.240;2022-11-20T16:14:05;10.77;;;2.17;;
13797;SDS011;6970;51.340;3.240;2022-11-20T16:17:02;15.65;;;3.13;;
13797;SDS011;6970;51.340;3.240;2022-11-20T16:19:32;11.00;;;2.47;;
13797;SDS011;6970;51.340;3.240;2022-11-20T16:22:00;15.50;;;2.60;;
13797;SDS011;6970;51.340;3.240;2022-11-20T16:32:02;8.60;;;2.60;;
13797;SDS011;6970;51.340;3.240;2022-11-20T16:34:29;8.83;;;2.37;;
13797;SDS011;6970;51.340;3.240;2022-11-20T16:36:58;8.00;;;3.23;;
13797;SDS011;6970;51.340;3.240;2022-11-20T16:39:26;13.23;;;2.30;;
13797;SDS011;6970;51.340;3.240;2022-11-20T16:41:56;14.57;;;3.13;;
13797;SDS011;6970;51.340;3.240;2022-11-20T16:44:29;18.23;;;2.97;;
13797;SDS011;6970;51.340;3.240;2022-11-20T16:46:58;9.20;;;2.63;;
13797;SDS011;6970;51.340;3.240;2022-11-20T16:49:28;11.37;;;2.73;;
13797;SDS011;6970;51.340;3.240;2022-11-20T16:54:26;13.43;;;3.00;;
13797;SDS011;6970;51.340;3.240;2022-11-20T16:56:54;15.33;;;2.87;;
13797;SDS011;6970;51.340;3.240;2022-11-20T16:59:22;14.17;;;3.30;;
13797;SDS011;6970;51.340;3.240;2022-11-20T17:01:49;16.03;;;3.00;;
13797;SDS011;6970;51.340;3.240;2022-11-20T17:04:16;12.43;;;2.73;;
13797;SDS011;6970;51.340;3.240;2022-11-20T17:06:43;15.40;;;2.40;;
13797;SDS011;6970;51.340;3.240;2022-11-20T17:09:11;10.73;;;2.77;;
13797;SDS011;6970;51.340;3.240;2022-11-20T17:11:42;12.37;;;2.40;;
13797;SDS011;6970;51.340;3.240;2022-11-20T17:14:11;13.13;;;2.53;;
13797;SDS011;6970;51.340;3.240;2022-11-20T17:16:40;13.30;;;2.30;;
13797;SDS011;6970;51.340;3.240;2022-11-20T17:19:11;10.93;;;2.87;;
13797;SDS011;6970;51.340;3.240;2022-11-20T17:24:10;10.47;;;2.70;;
13797;SDS011;6970;51.340;3.240;2022-11-20T17:29:13;14.20;;;2.87;;
13797;SDS011;6970;51.340;3.240;2022-11-20T17:31:43;9.53;;;2.20;;
13797;SDS011;6970;51.340;3.240;2022-11-20T17:34:11;11.10;;;1.97;;
13797;SDS011;6970;51.340;3.240;2022-11-20T17:36:42;12.70;;;2.47;;
13797;SDS011;6970;51.340;3.240;2022-11-20T17:39:15;10.23;;;2.20;;
13797;SDS011;6970;51.340;3.240;2022-11-20T17:44:38;9.70;;;2.50;;
13797;SDS011;6970;51.340;3.240;2022-11-20T17:49:41;14.47;;;2.80;;
13797;SDS011;6970;51.340;3.240;2022-11-20T17:54:41;11.60;;;2.37;;
13797;SDS011;6970;51.340;3.240;2022-11-20T17:57:11;7.93;;;2.20;;
13797;SDS011;6970;51.340;3.240;2022-11-20T18:00:02;11.57;;;2.30;;
13797;SDS011;6970;51.340;3.240;2022-11-20T18:02:33;10.03;;;2.33;;
13797;SDS011;6970;51.340;3.240;2022-11-20T18:05:03;16.33;;;2.87;;
13797;SDS011;6970;51.340;3.240;2022-11-20T18:07:39;11.70;;;3.00;;
13797;SDS011;6970;51.340;3.240;2022-11-20T18:10:09;9.30;;;2.37;;
13797;SDS011;6970;51.340;3.240;2022-11-20T18:12:36;9.87;;;2.43;;
13797;SDS011;6970;51.340;3.240;2022-11-20T18:15:03;11.00;;;2.40;;